sensor_id;sensor_type;location;lat;lon;timestamp;P1;durP1;ratioP1;P2;durP2;ratioP2
70576;SDS011;58138;43.138;24.702;2023-10-08T00:02:26;10.13;;;5.47;;
70576;SDS011;58138;43.138;24.702;2023-10-08T00:04:53;9.32;;;5.00;;
70576;SDS011;58138;43.138;24.702;2023-10-08T00:09:54;12.60;;;5.78;;
70576;SDS011;58138;43.138;24.702;2023-10-08T00:12:20;11.20;;;5.15;;
70576;SDS011;58138;43.138;24.702;2023-10-08T00:14:46;10.98;;;5.15;;
70576;SDS011;58138;43.138;24.702;2023-10-08T00:17:15;10.48;;;5.38;;
70576;SDS011;58138;43.138;24.702;2023-10-08T00:19:43;11.68;;;5.07;;
70576;SDS011;58138;43.138;24.702;2023-10-08T00:22:09;10.45;;;5.50;;
70576;SDS011;58138;43.138;24.702;2023-10-08T00:24:41;11.85;;;5.90;;
70576;SDS011;58138;43.138;24.702;2023-10-08T00:27:09;9.85;;;5.65;;
70576;SDS011;58138;43.138;24.702;2023-10-08T00:29:35;9.77;;;5.47;;
70576;SDS011;58138;43.138;24.702;2023-10-08T00:32:05;10.85;;;5.60;;
70576;SDS011;58138;43.138;24.702;2023-10-08T00:34:36;9.90;;;5.30;;
70576;SDS011;58138;43.138;24.702;2023-10-08T00:37:07;8.25;;;5.18;;
70576;SDS011;58138;43.138;24.702;2023-10-08T00:39:34;12.35;;;5.57;;
70576;SDS011;58138;43.138;24.702;2023-10-08T00:42:03;12.88;;;5.65;;
70576;SDS011;58138;43.138;24.702;2023-10-08T00:44:31;9.45;;;5.63;;
70576;SDS011;58138;43.138;24.702;2023-10-08T00:47:01;9.93;;;5.70;;
70576;SDS011;58138;43.138;24.702;2023-10-08T00:49:27;8.35;;;5.47;;
70576;SDS011;58138;43.138;24.702;2023-10-08T00:52:08;12.30;;;5.32;;
70576;SDS011;58138;43.138;24.702;2023-10-08T00:54:35;10.20;;;5.40;;
70576;SDS011;58138;43.138;24.702;2023-10-08T00:57:23;9.63;;;5.28;;
70576;SDS011;58138;43.138;24.702;2023-10-08T00:59:51;8.48;;;5.38;;
70576;SDS011;58138;43.138;24.702;2023-10-08T01:02:21;10.20;;;4.93;;
70576;SDS011;58138;43.138;24.702;2023-10-08T01:05:01;10.95;;;5.85;;
70576;SDS011;58138;43.138;24.702;2023-10-08T01:07:27;12.68;;;5.38;;
70576;SDS011;58138;43.138;24.702;2023-10-08T01:09:52;8.52;;;4.57;;
70576;SDS011;58138;43.138;24.702;2023-10-08T01:12:24;13.88;;;5.75;;
70576;SDS011;58138;43.138;24.702;2023-10-08T01:14:59;11.73;;;5.25;;
70576;SDS011;58138;43.138;24.702;2023-10-08T01:17:43;10.32;;;4.93;;
70576;SDS011;58138;43.138;24.702;2023-10-08T01:20:27;10.73;;;5.55;;
70576;SDS011;58138;43.138;24.702;2023-10-08T01:23:06;9.15;;;4.80;;
70576;SDS011;58138;43.138;24.702;2023-10-08T01:25:41;11.82;;;5.40;;
70576;SDS011;58138;43.138;24.702;2023-10-08T01:28:08;9.20;;;5.22;;
70576;SDS011;58138;43.138;24.702;2023-10-08T01:30:43;8.18;;;5.40;;
70576;SDS011;58138;43.138;24.702;2023-10-08T01:33:12;9.35;;;5.20;;
70576;SDS011;58138;43.138;24.702;2023-10-08T01:35:40;12.88;;;5.43;;
70576;SDS011;58138;43.138;24.702;2023-10-08T01:38:06;9.30;;;5.05;;
70576;SDS011;58138;43.138;24.702;2023-10-08T01:40:33;11.38;;;4.85;;
70576;SDS011;58138;43.138;24.702;2023-10-08T01:42:59;7.88;;;4.78;;
70576;SDS011;58138;43.138;24.702;2023-10-08T01:45:25;9.65;;;5.25;;
70576;SDS011;58138;43.138;24.702;2023-10-08T01:47:51;6.57;;;4.50;;
70576;SDS011;58138;43.138;24.702;2023-10-08T01:50:20;9.65;;;5.30;;
70576;SDS011;58138;43.138;24.702;2023-10-08T01:52:54;8.85;;;4.68;;
70576;SDS011;58138;43.138;24.702;2023-10-08T01:55:20;7.88;;;4.00;;
70576;SDS011;58138;43.138;24.702;2023-10-08T01:57:48;6.50;;;3.70;;
70576;SDS011;58138;43.138;24.702;2023-10-08T02:00:16;9.10;;;3.67;;
70576;SDS011;58138;43.138;24.702;2023-10-08T02:02:54;8.10;;;4.70;;
70576;SDS011;58138;43.138;24.702;2023-10-08T02:05:19;10.73;;;4.18;;
70576;SDS011;58138;43.138;24.702;2023-10-08T02:07:46;9.35;;;4.93;;
70576;SDS011;58138;43.138;24.702;2023-10-08T02:10:11;7.25;;;3.85;;
70576;SDS011;58138;43.138;24.702;2023-10-08T02:12:39;7.70;;;3.97;;
70576;SDS011;58138;43.138;24.702;2023-10-08T02:15:07;7.03;;;3.97;;
70576;SDS011;58138;43.138;24.702;2023-10-08T02:17:34;9.65;;;4.60;;
70576;SDS011;58138;43.138;24.702;2023-10-08T02:20:00;6.00;;;3.78;;
70576;SDS011;58138;43.138;24.702;2023-10-08T02:22:29;9.73;;;4.35;;
70576;SDS011;58138;43.138;24.702;2023-10-08T02:24:55;6.32;;;4.40;;
70576;SDS011;58138;43.138;24.702;2023-10-08T02:27:26;9.00;;;4.55;;
70576;SDS011;58138;43.138;24.702;2023-10-08T02:29:52;9.18;;;4.68;;
70576;SDS011;58138;43.138;24.702;2023-10-08T02:32:17;8.88;;;4.53;;
70576;SDS011;58138;43.138;24.702;2023-10-08T02:34:43;8.02;;;4.50;;
70576;SDS011;58138;43.138;24.702;2023-10-08T02:37:10;9.35;;;4.38;;
70576;SDS011;58138;43.138;24.702;2023-10-08T02:39:37;9.02;;;4.68;;
70576;SDS011;58138;43.138;24.702;2023-10-08T02:42:05;7.72;;;4.75;;
70576;SDS011;58138;43.138;24.702;2023-10-08T02:44:35;9.85;;;4.22;;
70576;SDS011;58138;43.138;24.702;2023-10-08T02:47:07;7.90;;;4.20;;
70576;SDS011;58138;43.138;24.702;2023-10-08T02:49:33;11.00;;;4.70;;
70576;SDS011;58138;43.138;24.702;2023-10-08T02:52:00;11.48;;;4.85;;
70576;SDS011;58138;43.138;24.702;2023-10-08T02:54:27;9.15;;;4.68;;
70576;SDS011;58138;43.138;24.702;2023-10-08T02:57:01;6.75;;;4.03;;
70576;SDS011;58138;43.138;24.702;2023-10-08T02:59:35;9.40;;;5.15;;
70576;SDS011;58138;43.138;24.702;2023-10-08T03:02:11;9.73;;;4.80;;
70576;SDS011;58138;43.138;24.702;2023-10-08T03:04:44;7.30;;;4.45;;
70576;SDS011;58138;43.138;24.702;2023-10-08T03:07:16;9.82;;;4.60;;
70576;SDS011;58138;43.138;24.702;2023-10-08T03:09:58;8.70;;;4.75;;
70576;SDS011;58138;43.138;24.702;2023-10-08T03:12:42;8.57;;;4.50;;
70576;SDS011;58138;43.138;24.702;2023-10-08T03:15:15;12.18;;;4.95;;
70576;SDS011;58138;43.138;24.702;2023-10-08T03:18:03;8.48;;;4.47;;
70576;SDS011;58138;43.138;24.702;2023-10-08T03:20:43;10.75;;;4.53;;
70576;SDS011;58138;43.138;24.702;2023-10-08T03:23:14;9.35;;;4.40;;
70576;SDS011;58138;43.138;24.702;2023-10-08T03:25:54;8.40;;;4.45;;
70576;SDS011;58138;43.138;24.702;2023-10-08T03:28:35;10.02;;;4.70;;
70576;SDS011;58138;43.138;24.702;2023-10-08T03:31:02;8.55;;;5.45;;
70576;SDS011;58138;43.138;24.702;2023-10-08T03:33:31;8.57;;;5.10;;
70576;SDS011;58138;43.138;24.702;2023-10-08T03:36:03;11.27;;;4.80;;
70576;SDS011;58138;43.138;24.702;2023-10-08T03:38:58;9.38;;;4.60;;
70576;SDS011;58138;43.138;24.702;2023-10-08T03:41:34;11.25;;;4.63;;
70576;SDS011;58138;43.138;24.702;2023-10-08T03:44:05;19.35;;;5.43;;
70576;SDS011;58138;43.138;24.702;2023-10-08T03:46:32;11.05;;;4.65;;
70576;SDS011;58138;43.138;24.702;2023-10-08T03:49:04;11.38;;;4.70;;
70576;SDS011;58138;43.138;24.702;2023-10-08T03:51:37;8.30;;;4.70;;
70576;SDS011;58138;43.138;24.702;2023-10-08T03:54:05;8.63;;;5.10;;
70576;SDS011;58138;43.138;24.702;2023-10-08T03:56:39;8.02;;;4.47;;
70576;SDS011;58138;43.138;24.702;2023-10-08T03:59:10;8.13;;;4.20;;
70576;SDS011;58138;43.138;24.702;2023-10-08T04:01:42;8.30;;;4.68;;
70576;SDS011;58138;43.138;24.702;2023-10-08T04:04:08;9.77;;;4.85;;
70576;SDS011;58138;43.138;24.702;2023-10-08T04:06:39;9.30;;;5.18;;
70576;SDS011;58138;43.138;24.702;2023-10-08T04:09:14;15.90;;;5.57;;
70576;SDS011;58138;43.138;24.702;2023-10-08T04:11:50;10.27;;;5.43;;
70576;SDS011;58138;43.138;24.702;2023-10-08T04:14:16;14.40;;;7.38;;
70576;SDS011;58138;43.138;24.702;2023-10-08T04:16:44;14.70;;;6.03;;
70576;SDS011;58138;43.138;24.702;2023-10-08T04:19:10;14.63;;;7.43;;
70576;SDS011;58138;43.138;24.702;2023-10-08T04:21:36;13.25;;;5.68;;
70576;SDS011;58138;43.138;24.702;2023-10-08T04:24:02;16.67;;;7.18;;
70576;SDS011;58138;43.138;24.702;2023-10-08T04:26:31;9.88;;;5.45;;
70576;SDS011;58138;43.138;24.702;2023-10-08T04:28:58;9.85;;;4.80;;
70576;SDS011;58138;43.138;24.702;2023-10-08T04:31:31;9.77;;;4.80;;
70576;SDS011;58138;43.138;24.702;2023-10-08T04:34:05;7.68;;;4.28;;
70576;SDS011;58138;43.138;24.702;2023-10-08T04:36:51;11.48;;;4.70;;
70576;SDS011;58138;43.138;24.702;2023-10-08T04:39:22;12.20;;;5.40;;
70576;SDS011;58138;43.138;24.702;2023-10-08T04:42:03;11.60;;;5.30;;
70576;SDS011;58138;43.138;24.702;2023-10-08T04:44:39;8.98;;;4.88;;
70576;SDS011;58138;43.138;24.702;2023-10-08T04:47:06;8.70;;;4.68;;
70576;SDS011;58138;43.138;24.702;2023-10-08T04:49:33;13.43;;;4.45;;
70576;SDS011;58138;43.138;24.702;2023-10-08T04:52:00;6.97;;;4.38;;
70576;SDS011;58138;43.138;24.702;2023-10-08T04:54:55;9.80;;;4.18;;
70576;SDS011;58138;43.138;24.702;2023-10-08T04:57:21;8.10;;;4.03;;
70576;SDS011;58138;43.138;24.702;2023-10-08T04:59:48;9.45;;;4.47;;
70576;SDS011;58138;43.138;24.702;2023-10-08T05:02:15;7.22;;;4.22;;
70576;SDS011;58138;43.138;24.702;2023-10-08T05:04:59;6.90;;;4.00;;
70576;SDS011;58138;43.138;24.702;2023-10-08T05:07:37;8.18;;;5.25;;
70576;SDS011;58138;43.138;24.702;2023-10-08T05:10:25;7.18;;;4.70;;
70576;SDS011;58138;43.138;24.702;2023-10-08T05:12:52;10.23;;;5.50;;
70576;SDS011;58138;43.138;24.702;2023-10-08T05:15:38;6.93;;;4.40;;
70576;SDS011;58138;43.138;24.702;2023-10-08T05:18:12;8.82;;;4.38;;
70576;SDS011;58138;43.138;24.702;2023-10-08T05:20:48;6.70;;;3.88;;
70576;SDS011;58138;43.138;24.702;2023-10-08T05:23:15;8.93;;;4.30;;
70576;SDS011;58138;43.138;24.702;2023-10-08T05:25:45;7.10;;;4.30;;
70576;SDS011;58138;43.138;24.702;2023-10-08T05:28:37;9.60;;;4.15;;
70576;SDS011;58138;43.138;24.702;2023-10-08T05:31:22;8.93;;;4.20;;
70576;SDS011;58138;43.138;24.702;2023-10-08T05:34:02;6.72;;;4.13;;
70576;SDS011;58138;43.138;24.702;2023-10-08T05:36:43;7.78;;;3.80;;
70576;SDS011;58138;43.138;24.702;2023-10-08T05:39:19;7.07;;;3.90;;
70576;SDS011;58138;43.138;24.702;2023-10-08T05:42:05;7.25;;;4.22;;
70576;SDS011;58138;43.138;24.702;2023-10-08T05:44:56;6.72;;;3.95;;
70576;SDS011;58138;43.138;24.702;2023-10-08T05:47:34;8.55;;;3.55;;
70576;SDS011;58138;43.138;24.702;2023-10-08T05:50:00;7.32;;;4.03;;
70576;SDS011;58138;43.138;24.702;2023-10-08T05:52:55;8.05;;;3.25;;
70576;SDS011;58138;43.138;24.702;2023-10-08T05:55:24;7.88;;;3.75;;
70576;SDS011;58138;43.138;24.702;2023-10-08T05:57:54;7.28;;;3.35;;
70576;SDS011;58138;43.138;24.702;2023-10-08T06:00:49;9.93;;;3.88;;
70576;SDS011;58138;43.138;24.702;2023-10-08T06:03:15;6.93;;;3.55;;
70576;SDS011;58138;43.138;24.702;2023-10-08T06:06:07;6.37;;;3.50;;
70576;SDS011;58138;43.138;24.702;2023-10-08T06:08:36;6.93;;;3.70;;
70576;SDS011;58138;43.138;24.702;2023-10-08T06:11:18;6.72;;;3.42;;
70576;SDS011;58138;43.138;24.702;2023-10-08T06:14:03;7.25;;;3.40;;
70576;SDS011;58138;43.138;24.702;2023-10-08T06:16:38;6.30;;;3.40;;
70576;SDS011;58138;43.138;24.702;2023-10-08T06:19:07;6.07;;;3.60;;
70576;SDS011;58138;43.138;24.702;2023-10-08T06:21:35;6.40;;;3.28;;
70576;SDS011;58138;43.138;24.702;2023-10-08T06:24:03;6.22;;;3.10;;
70576;SDS011;58138;43.138;24.702;2023-10-08T06:26:34;7.05;;;3.63;;
70576;SDS011;58138;43.138;24.702;2023-10-08T06:29:14;5.10;;;3.50;;
70576;SDS011;58138;43.138;24.702;2023-10-08T06:31:56;6.60;;;3.15;;
70576;SDS011;58138;43.138;24.702;2023-10-08T06:34:22;7.85;;;3.67;;
70576;SDS011;58138;43.138;24.702;2023-10-08T06:36:50;6.10;;;3.20;;
70576;SDS011;58138;43.138;24.702;2023-10-08T06:39:22;8.98;;;3.60;;
70576;SDS011;58138;43.138;24.702;2023-10-08T06:41:58;5.43;;;3.08;;
70576;SDS011;58138;43.138;24.702;2023-10-08T06:44:24;5.53;;;3.35;;
70576;SDS011;58138;43.138;24.702;2023-10-08T06:46:51;6.53;;;3.33;;
70576;SDS011;58138;43.138;24.702;2023-10-08T06:49:21;9.57;;;3.97;;
70576;SDS011;58138;43.138;24.702;2023-10-08T06:51:50;7.22;;;3.65;;
70576;SDS011;58138;43.138;24.702;2023-10-08T06:54:16;5.60;;;3.28;;
70576;SDS011;58138;43.138;24.702;2023-10-08T06:56:43;6.47;;;2.90;;
70576;SDS011;58138;43.138;24.702;2023-10-08T06:59:16;9.63;;;3.50;;
70576;SDS011;58138;43.138;24.702;2023-10-08T07:01:42;6.10;;;3.00;;
70576;SDS011;58138;43.138;24.702;2023-10-08T07:04:11;5.25;;;3.08;;
70576;SDS011;58138;43.138;24.702;2023-10-08T07:06:40;6.00;;;3.60;;
70576;SDS011;58138;43.138;24.702;2023-10-08T07:09:08;6.25;;;3.08;;
70576;SDS011;58138;43.138;24.702;2023-10-08T07:12:01;8.77;;;3.60;;
70576;SDS011;58138;43.138;24.702;2023-10-08T07:14:30;5.57;;;3.50;;
70576;SDS011;58138;43.138;24.702;2023-10-08T07:16:57;4.55;;;3.20;;
70576;SDS011;58138;43.138;24.702;2023-10-08T07:19:28;9.30;;;3.60;;
70576;SDS011;58138;43.138;24.702;2023-10-08T07:22:07;5.78;;;3.80;;
70576;SDS011;58138;43.138;24.702;2023-10-08T07:24:53;7.40;;;3.45;;
70576;SDS011;58138;43.138;24.702;2023-10-08T07:27:19;6.20;;;3.67;;
70576;SDS011;58138;43.138;24.702;2023-10-08T07:29:54;7.38;;;3.58;;
70576;SDS011;58138;43.138;24.702;2023-10-08T07:32:20;7.28;;;3.05;;
70576;SDS011;58138;43.138;24.702;2023-10-08T07:34:46;6.63;;;3.75;;
70576;SDS011;58138;43.138;24.702;2023-10-08T07:37:12;5.80;;;4.07;;
70576;SDS011;58138;43.138;24.702;2023-10-08T07:39:39;6.05;;;3.70;;
70576;SDS011;58138;43.138;24.702;2023-10-08T07:42:11;9.63;;;3.30;;
70576;SDS011;58138;43.138;24.702;2023-10-08T07:44:37;10.00;;;3.95;;
70576;SDS011;58138;43.138;24.702;2023-10-08T07:47:04;10.70;;;3.45;;
70576;SDS011;58138;43.138;24.702;2023-10-08T07:49:35;12.50;;;4.13;;
70576;SDS011;58138;43.138;24.702;2023-10-08T07:52:01;16.13;;;4.13;;
70576;SDS011;58138;43.138;24.702;2023-10-08T07:54:29;6.88;;;3.90;;
70576;SDS011;58138;43.138;24.702;2023-10-08T07:56:59;6.22;;;3.75;;
70576;SDS011;58138;43.138;24.702;2023-10-08T07:59:35;5.55;;;3.65;;
70576;SDS011;58138;43.138;24.702;2023-10-08T08:02:06;5.47;;;3.38;;
70576;SDS011;58138;43.138;24.702;2023-10-08T08:04:36;8.20;;;3.92;;
70576;SDS011;58138;43.138;24.702;2023-10-08T08:07:06;7.65;;;3.75;;
70576;SDS011;58138;43.138;24.702;2023-10-08T08:09:31;16.02;;;4.63;;
70576;SDS011;58138;43.138;24.702;2023-10-08T08:12:06;5.80;;;3.50;;
70576;SDS011;58138;43.138;24.702;2023-10-08T08:14:35;11.00;;;3.30;;
70576;SDS011;58138;43.138;24.702;2023-10-08T08:17:04;8.60;;;4.28;;
70576;SDS011;58138;43.138;24.702;2023-10-08T08:19:39;8.13;;;3.38;;
70576;SDS011;58138;43.138;24.702;2023-10-08T08:22:09;8.23;;;3.67;;
70576;SDS011;58138;43.138;24.702;2023-10-08T08:24:40;8.18;;;3.13;;
70576;SDS011;58138;43.138;24.702;2023-10-08T08:27:10;10.95;;;4.00;;
70576;SDS011;58138;43.138;24.702;2023-10-08T08:29:44;9.48;;;3.30;;
70576;SDS011;58138;43.138;24.702;2023-10-08T08:32:10;10.65;;;4.05;;
70576;SDS011;58138;43.138;24.702;2023-10-08T08:34:41;7.85;;;4.00;;
70576;SDS011;58138;43.138;24.702;2023-10-08T08:37:09;5.68;;;3.65;;
70576;SDS011;58138;43.138;24.702;2023-10-08T08:39:36;7.95;;;3.83;;
70576;SDS011;58138;43.138;24.702;2023-10-08T08:42:03;10.93;;;4.40;;
70576;SDS011;58138;43.138;24.702;2023-10-08T08:44:32;9.85;;;4.22;;
70576;SDS011;58138;43.138;24.702;2023-10-08T08:47:10;10.35;;;3.85;;
70576;SDS011;58138;43.138;24.702;2023-10-08T08:49:39;7.97;;;3.63;;
70576;SDS011;58138;43.138;24.702;2023-10-08T08:52:06;7.22;;;4.05;;
70576;SDS011;58138;43.138;24.702;2023-10-08T08:54:32;9.23;;;3.72;;
70576;SDS011;58138;43.138;24.702;2023-10-08T08:56:59;20.15;;;4.50;;
70576;SDS011;58138;43.138;24.702;2023-10-08T08:59:27;8.93;;;3.83;;
70576;SDS011;58138;43.138;24.702;2023-10-08T09:01:56;7.32;;;4.15;;
70576;SDS011;58138;43.138;24.702;2023-10-08T09:04:29;14.88;;;4.43;;
70576;SDS011;58138;43.138;24.702;2023-10-08T09:06:55;5.32;;;3.55;;
70576;SDS011;58138;43.138;24.702;2023-10-08T09:09:22;11.98;;;4.18;;
70576;SDS011;58138;43.138;24.702;2023-10-08T09:11:51;9.20;;;3.83;;
70576;SDS011;58138;43.138;24.702;2023-10-08T09:14:19;9.65;;;4.05;;
70576;SDS011;58138;43.138;24.702;2023-10-08T09:16:46;9.82;;;4.10;;
70576;SDS011;58138;43.138;24.702;2023-10-08T09:19:12;11.65;;;4.05;;
70576;SDS011;58138;43.138;24.702;2023-10-08T09:21:43;11.73;;;4.53;;
70576;SDS011;58138;43.138;24.702;2023-10-08T09:24:09;11.38;;;4.00;;
70576;SDS011;58138;43.138;24.702;2023-10-08T09:26:36;9.43;;;4.40;;
70576;SDS011;58138;43.138;24.702;2023-10-08T09:29:04;10.95;;;4.18;;
70576;SDS011;58138;43.138;24.702;2023-10-08T09:31:30;8.32;;;4.57;;
70576;SDS011;58138;43.138;24.702;2023-10-08T09:34:00;9.80;;;4.47;;
70576;SDS011;58138;43.138;24.702;2023-10-08T09:36:27;11.40;;;4.65;;
70576;SDS011;58138;43.138;24.702;2023-10-08T09:39:00;12.25;;;4.53;;
70576;SDS011;58138;43.138;24.702;2023-10-08T09:41:29;6.32;;;4.30;;
70576;SDS011;58138;43.138;24.702;2023-10-08T09:43:56;7.10;;;4.13;;
70576;SDS011;58138;43.138;24.702;2023-10-08T09:46:26;15.40;;;4.70;;
70576;SDS011;58138;43.138;24.702;2023-10-08T09:48:56;8.13;;;4.22;;
70576;SDS011;58138;43.138;24.702;2023-10-08T09:51:24;10.25;;;4.28;;
70576;SDS011;58138;43.138;24.702;2023-10-08T09:56:25;18.63;;;4.43;;
70576;SDS011;58138;43.138;24.702;2023-10-08T09:58:54;7.90;;;4.25;;
70576;SDS011;58138;43.138;24.702;2023-10-08T10:01:20;15.95;;;4.68;;
70576;SDS011;58138;43.138;24.702;2023-10-08T10:03:47;17.58;;;4.38;;
70576;SDS011;58138;43.138;24.702;2023-10-08T10:06:13;6.70;;;3.67;;
70576;SDS011;58138;43.138;24.702;2023-10-08T10:08:41;11.13;;;4.22;;
70576;SDS011;58138;43.138;24.702;2023-10-08T10:11:07;17.48;;;5.05;;
70576;SDS011;58138;43.138;24.702;2023-10-08T10:13:43;15.90;;;4.78;;
70576;SDS011;58138;43.138;24.702;2023-10-08T10:16:13;17.77;;;5.13;;
70576;SDS011;58138;43.138;24.702;2023-10-08T10:18:43;13.85;;;4.60;;
70576;SDS011;58138;43.138;24.702;2023-10-08T10:23:41;12.98;;;3.70;;
70576;SDS011;58138;43.138;24.702;2023-10-08T10:26:33;9.20;;;4.18;;
70576;SDS011;58138;43.138;24.702;2023-10-08T10:31:40;7.53;;;4.07;;
70576;SDS011;58138;43.138;24.702;2023-10-08T10:36:42;10.30;;;3.95;;
70576;SDS011;58138;43.138;24.702;2023-10-08T10:39:12;6.47;;;4.32;;
70576;SDS011;58138;43.138;24.702;2023-10-08T10:41:55;12.40;;;3.90;;
70576;SDS011;58138;43.138;24.702;2023-10-08T10:44:25;7.95;;;3.60;;
70576;SDS011;58138;43.138;24.702;2023-10-08T10:46:51;10.82;;;4.30;;
70576;SDS011;58138;43.138;24.702;2023-10-08T10:49:17;13.80;;;5.07;;
70576;SDS011;58138;43.138;24.702;2023-10-08T10:51:49;9.50;;;3.88;;
70576;SDS011;58138;43.138;24.702;2023-10-08T10:54:22;7.75;;;3.58;;
70576;SDS011;58138;43.138;24.702;2023-10-08T10:56:49;7.65;;;4.10;;
70576;SDS011;58138;43.138;24.702;2023-10-08T10:59:31;11.57;;;4.18;;
70576;SDS011;58138;43.138;24.702;2023-10-08T11:02:05;13.02;;;4.20;;
70576;SDS011;58138;43.138;24.702;2023-10-08T11:04:46;9.32;;;4.70;;
70576;SDS011;58138;43.138;24.702;2023-10-08T11:07:18;16.13;;;4.70;;
70576;SDS011;58138;43.138;24.702;2023-10-08T11:09:49;15.02;;;4.28;;
70576;SDS011;58138;43.138;24.702;2023-10-08T11:12:17;10.52;;;4.28;;
70576;SDS011;58138;43.138;24.702;2023-10-08T11:14:48;15.17;;;5.00;;
70576;SDS011;58138;43.138;24.702;2023-10-08T11:17:17;17.60;;;4.00;;
70576;SDS011;58138;43.138;24.702;2023-10-08T11:19:47;14.32;;;5.03;;
70576;SDS011;58138;43.138;24.702;2023-10-08T11:22:13;17.40;;;5.45;;
70576;SDS011;58138;43.138;24.702;2023-10-08T11:24:46;19.27;;;5.65;;
70576;SDS011;58138;43.138;24.702;2023-10-08T11:27:19;22.52;;;6.10;;
70576;SDS011;58138;43.138;24.702;2023-10-08T11:29:54;15.63;;;6.28;;
70576;SDS011;58138;43.138;24.702;2023-10-08T11:32:23;10.00;;;4.70;;
70576;SDS011;58138;43.138;24.702;2023-10-08T11:34:58;14.43;;;4.95;;
70576;SDS011;58138;43.138;24.702;2023-10-08T11:40:00;14.95;;;4.70;;
70576;SDS011;58138;43.138;24.702;2023-10-08T11:42:34;19.77;;;4.80;;
70576;SDS011;58138;43.138;24.702;2023-10-08T11:45:00;15.98;;;4.13;;
70576;SDS011;58138;43.138;24.702;2023-10-08T11:47:43;13.15;;;3.90;;
70576;SDS011;58138;43.138;24.702;2023-10-08T11:50:10;10.55;;;4.05;;
70576;SDS011;58138;43.138;24.702;2023-10-08T11:52:41;11.90;;;4.20;;
70576;SDS011;58138;43.138;24.702;2023-10-08T11:55:07;9.63;;;4.43;;
70576;SDS011;58138;43.138;24.702;2023-10-08T11:57:34;16.17;;;4.50;;
70576;SDS011;58138;43.138;24.702;2023-10-08T12:00:04;9.40;;;3.45;;
70576;SDS011;58138;43.138;24.702;2023-10-08T12:02:44;8.00;;;3.50;;
70576;SDS011;58138;43.138;24.702;2023-10-08T12:05:11;11.18;;;3.90;;
70576;SDS011;58138;43.138;24.702;2023-10-08T12:07:47;13.98;;;3.97;;
70576;SDS011;58138;43.138;24.702;2023-10-08T12:10:13;10.05;;;4.05;;
70576;SDS011;58138;43.138;24.702;2023-10-08T12:12:47;10.35;;;4.00;;
70576;SDS011;58138;43.138;24.702;2023-10-08T12:15:25;8.52;;;3.35;;
70576;SDS011;58138;43.138;24.702;2023-10-08T12:17:59;10.18;;;3.70;;
70576;SDS011;58138;43.138;24.702;2023-10-08T12:20:38;11.80;;;3.90;;
70576;SDS011;58138;43.138;24.702;2023-10-08T12:23:04;18.27;;;4.55;;
70576;SDS011;58138;43.138;24.702;2023-10-08T12:25:30;17.15;;;4.20;;
70576;SDS011;58138;43.138;24.702;2023-10-08T12:27:58;13.30;;;3.97;;
70576;SDS011;58138;43.138;24.702;2023-10-08T12:32:56;14.27;;;4.22;;
70576;SDS011;58138;43.138;24.702;2023-10-08T12:35:25;21.27;;;4.75;;
70576;SDS011;58138;43.138;24.702;2023-10-08T12:37:51;23.30;;;4.32;;
70576;SDS011;58138;43.138;24.702;2023-10-08T12:40:16;14.00;;;4.38;;
70576;SDS011;58138;43.138;24.702;2023-10-08T12:42:51;18.30;;;4.30;;
70576;SDS011;58138;43.138;24.702;2023-10-08T12:45:17;16.88;;;3.70;;
70576;SDS011;58138;43.138;24.702;2023-10-08T12:47:54;10.93;;;3.63;;
70576;SDS011;58138;43.138;24.702;2023-10-08T12:50:20;19.85;;;3.47;;
70576;SDS011;58138;43.138;24.702;2023-10-08T12:52:57;14.50;;;3.58;;
70576;SDS011;58138;43.138;24.702;2023-10-08T12:55:22;16.88;;;3.42;;
70576;SDS011;58138;43.138;24.702;2023-10-08T12:57:51;13.85;;;3.25;;
70576;SDS011;58138;43.138;24.702;2023-10-08T13:00:34;19.23;;;3.50;;
70576;SDS011;58138;43.138;24.702;2023-10-08T13:03:02;11.65;;;2.90;;
70576;SDS011;58138;43.138;24.702;2023-10-08T13:05:30;15.10;;;2.95;;
70576;SDS011;58138;43.138;24.702;2023-10-08T13:07:58;19.58;;;3.65;;
70576;SDS011;58138;43.138;24.702;2023-10-08T13:10:28;14.15;;;3.78;;
70576;SDS011;58138;43.138;24.702;2023-10-08T13:12:56;18.88;;;3.60;;
70576;SDS011;58138;43.138;24.702;2023-10-08T13:15:22;16.40;;;3.70;;
70576;SDS011;58138;43.138;24.702;2023-10-08T13:17:51;15.82;;;3.90;;
70576;SDS011;58138;43.138;24.702;2023-10-08T13:20:17;18.80;;;3.67;;
70576;SDS011;58138;43.138;24.702;2023-10-08T13:22:42;16.20;;;3.65;;
70576;SDS011;58138;43.138;24.702;2023-10-08T13:25:09;13.27;;;3.42;;
70576;SDS011;58138;43.138;24.702;2023-10-08T13:27:35;14.85;;;3.90;;
70576;SDS011;58138;43.138;24.702;2023-10-08T13:30:07;6.32;;;2.47;;
70576;SDS011;58138;43.138;24.702;2023-10-08T13:32:34;14.85;;;3.70;;
70576;SDS011;58138;43.138;24.702;2023-10-08T13:35:04;14.75;;;3.80;;
70576;SDS011;58138;43.138;24.702;2023-10-08T13:37:33;17.77;;;4.13;;
70576;SDS011;58138;43.138;24.702;2023-10-08T13:42:27;19.92;;;4.38;;
70576;SDS011;58138;43.138;24.702;2023-10-08T13:44:54;19.38;;;4.35;;
70576;SDS011;58138;43.138;24.702;2023-10-08T13:47:22;21.25;;;3.85;;
70576;SDS011;58138;43.138;24.702;2023-10-08T13:49:51;13.82;;;4.20;;
70576;SDS011;58138;43.138;24.702;2023-10-08T13:52:21;16.65;;;4.07;;
70576;SDS011;58138;43.138;24.702;2023-10-08T13:54:51;9.07;;;3.40;;
70576;SDS011;58138;43.138;24.702;2023-10-08T13:57:18;16.13;;;4.03;;
70576;SDS011;58138;43.138;24.702;2023-10-08T13:59:45;14.82;;;3.92;;
70576;SDS011;58138;43.138;24.702;2023-10-08T14:02:12;14.20;;;3.80;;
70576;SDS011;58138;43.138;24.702;2023-10-08T14:04:43;14.43;;;4.15;;
70576;SDS011;58138;43.138;24.702;2023-10-08T14:07:13;16.17;;;3.90;;
70576;SDS011;58138;43.138;24.702;2023-10-08T14:09:42;24.88;;;4.43;;
70576;SDS011;58138;43.138;24.702;2023-10-08T14:12:11;16.55;;;4.15;;
70576;SDS011;58138;43.138;24.702;2023-10-08T14:14:38;8.98;;;3.55;;
70576;SDS011;58138;43.138;24.702;2023-10-08T14:17:08;12.57;;;4.18;;
70576;SDS011;58138;43.138;24.702;2023-10-08T14:19:39;17.67;;;5.63;;
70576;SDS011;58138;43.138;24.702;2023-10-08T14:22:26;15.20;;;5.72;;
70576;SDS011;58138;43.138;24.702;2023-10-08T14:24:52;20.33;;;5.82;;
70576;SDS011;58138;43.138;24.702;2023-10-08T14:27:30;14.50;;;6.30;;
70576;SDS011;58138;43.138;24.702;2023-10-08T14:29:58;12.30;;;4.93;;
70576;SDS011;58138;43.138;24.702;2023-10-08T14:32:29;11.07;;;4.68;;
70576;SDS011;58138;43.138;24.702;2023-10-08T14:34:58;13.23;;;4.68;;
70576;SDS011;58138;43.138;24.702;2023-10-08T14:37:23;12.43;;;4.10;;
70576;SDS011;58138;43.138;24.702;2023-10-08T14:40:07;9.48;;;4.20;;
70576;SDS011;58138;43.138;24.702;2023-10-08T14:42:51;16.20;;;5.07;;
70576;SDS011;58138;43.138;24.702;2023-10-08T14:45:23;14.55;;;4.18;;
70576;SDS011;58138;43.138;24.702;2023-10-08T14:47:56;13.82;;;4.40;;
70576;SDS011;58138;43.138;24.702;2023-10-08T14:50:22;13.60;;;4.68;;
70576;SDS011;58138;43.138;24.702;2023-10-08T14:52:48;13.75;;;4.80;;
70576;SDS011;58138;43.138;24.702;2023-10-08T14:55:14;18.48;;;6.40;;
70576;SDS011;58138;43.138;24.702;2023-10-08T14:57:41;24.33;;;7.70;;
70576;SDS011;58138;43.138;24.702;2023-10-08T15:00:09;28.40;;;12.10;;
70576;SDS011;58138;43.138;24.702;2023-10-08T15:02:36;35.67;;;14.30;;
70576;SDS011;58138;43.138;24.702;2023-10-08T15:05:03;39.35;;;16.05;;
70576;SDS011;58138;43.138;24.702;2023-10-08T15:07:32;44.97;;;17.75;;
70576;SDS011;58138;43.138;24.702;2023-10-08T15:09:59;39.45;;;17.27;;
70576;SDS011;58138;43.138;24.702;2023-10-08T15:12:28;36.42;;;17.58;;